Time;durP1;ratioP1;P1;durP2;ratioP2;P2;SDS_P1;SDS_P2;PMS_P1;PMS_P2;Temp;Humidity;BMP_temperature;BMP_pressure;BME280_temperature;BME280_humidity;BME280_pressure;Samples;Min_cycle;Max_cycle;Signal;HPM_P1;HPM_P2
2023/12/02 00:00:38;;;;;;;55.40;28.62;;;;;;;;;;5588847;31;34331;-73
2023/12/02 00:03:41;;;;;;;56.67;28.90;;;;;;;;;;5589187;31;34181;-73
2023/12/02 00:06:43;;;;;;;57.67;30.67;;;;;;;;;;5588815;31;34571;-73
2023/12/02 00:09:46;;;;;;;70.70;30.77;;;;;;;;;;5589200;31;35050;-73
2023/12/02 00:12:48;;;;;;;74.32;33.25;;;;;;;;;;5588758;31;34476;-73
2023/12/02 00:15:51;;;;;;;83.65;35.97;;;;;;;;;;5588749;31;34561;-73
2023/12/02 00:18:54;;;;;;;57.65;31.95;;;;;;;;;;5588154;31;34389;-73
2023/12/02 00:21:57;;;;;;;89.97;37.13;;;;;;;;;;5588504;31;35053;-73
2023/12/02 00:25:00;;;;;;;105.90;40.03;;;;;;;;;;5588742;31;34318;-73
2023/12/02 00:28:03;;;;;;;77.43;32.85;;;;;;;;;;5588597;31;34472;-73
2023/12/02 00:31:06;;;;;;;96.43;37.03;;;;;;;;;;5589039;31;34603;-74
2023/12/02 00:34:09;;;;;;;96.32;35.72;;;;;;;;;;5588754;31;35232;-73
2023/12/02 00:37:11;;;;;;;85.65;35.25;;;;;;;;;;5574942;31;35243;-73
2023/12/02 00:40:14;;;;;;;89.80;35.08;;;;;;;;;;5588537;31;35018;-73
2023/12/02 00:43:16;;;;;;;91.55;34.17;;;;;;;;;;5588816;31;35102;-73
2023/12/02 00:46:19;;;;;;;130.23;39.97;;;;;;;;;;5587808;31;35296;-73
2023/12/02 00:49:22;;;;;;;105.80;37.45;;;;;;;;;;5588440;31;35116;-73
2023/12/02 00:52:25;;;;;;;159.60;43.60;;;;;;;;;;5588564;31;34976;-74
2023/12/02 00:55:27;;;;;;;101.30;35.30;;;;;;;;;;5588501;31;34513;-74
2023/12/02 00:58:30;;;;;;;130.45;39.15;;;;;;;;;;5588614;31;34332;-73
2023/12/02 01:01:42;;;;;;;114.80;36.70;;;;;;;;;;5588854;31;35070;-74
2023/12/02 01:04:45;;;;;;;101.30;34.53;;;;;;;;;;5588423;31;34206;-73
2023/12/02 01:07:47;;;;;;;110.25;34.13;;;;;;;;;;5587594;31;34381;-74
2023/12/02 01:10:50;;;;;;;100.95;32.40;;;;;;;;;;5588369;31;34416;-74
2023/12/02 01:13:52;;;;;;;161.88;40.60;;;;;;;;;;5588550;31;34419;-73
2023/12/02 01:16:55;;;;;;;130.30;36.22;;;;;;;;;;5588158;31;34763;-74
2023/12/02 01:19:57;;;;;;;148.50;38.20;;;;;;;;;;5588237;31;35040;-74
2023/12/02 01:23:00;;;;;;;113.40;34.42;;;;;;;;;;5588242;31;35135;-74
2023/12/02 01:26:02;;;;;;;140.18;37.08;;;;;;;;;;5588339;31;34400;-74
2023/12/02 01:29:05;;;;;;;111.37;33.45;;;;;;;;;;5588060;31;34450;-74
2023/12/02 01:32:07;;;;;;;114.78;33.75;;;;;;;;;;5588411;31;35142;-74
2023/12/02 01:35:10;;;;;;;123.15;33.50;;;;;;;;;;5588070;31;35209;-73
2023/12/02 01:38:13;;;;;;;121.55;34.20;;;;;;;;;;5587134;31;34489;-73
2023/12/02 01:41:16;;;;;;;116.50;32.28;;;;;;;;;;5588001;31;35110;-74
2023/12/02 01:44:18;;;;;;;102.90;31.92;;;;;;;;;;5587111;31;34516;-74
2023/12/02 01:47:21;;;;;;;116.43;32.05;;;;;;;;;;5587146;31;34457;-74
2023/12/02 01:50:23;;;;;;;101.93;29.80;;;;;;;;;;5587876;31;34362;-74
2023/12/02 01:53:26;;;;;;;120.10;33.33;;;;;;;;;;5587116;31;34601;-73
2023/12/02 01:56:28;;;;;;;113.93;31.25;;;;;;;;;;5587060;31;34371;-74
2023/12/02 01:59:31;;;;;;;159.95;35.58;;;;;;;;;;5586903;31;34380;-74
2023/12/02 02:02:36;;;;;;;100.10;28.60;;;;;;;;;;5587833;31;35048;-74
2023/12/02 02:05:38;;;;;;;92.90;28.23;;;;;;;;;;5587666;31;35207;-74
2023/12/02 02:08:41;;;;;;;109.50;30.50;;;;;;;;;;5587496;31;34395;-75
2023/12/02 02:11:46;;;;;;;146.32;33.90;;;;;;;;;;5587565;31;34303;-75
2023/12/02 02:14:49;;;;;;;89.25;27.98;;;;;;;;;;5587489;31;34317;-74
2023/12/02 02:17:52;;;;;;;129.60;30.73;;;;;;;;;;5586485;31;34737;-74
2023/12/02 02:20:55;;;;;;;123.18;28.92;;;;;;;;;;5586594;31;34340;-74
2023/12/02 02:23:57;;;;;;;98.25;27.62;;;;;;;;;;5587269;31;35063;-74
2023/12/02 02:27:00;;;;;;;100.70;28.10;;;;;;;;;;5587327;31;34456;-75
2023/12/02 02:30:03;;;;;;;148.10;31.67;;;;;;;;;;5587198;31;34586;-75
2023/12/02 02:33:05;;;;;;;105.63;28.02;;;;;;;;;;5587555;31;34260;-74
2023/12/02 02:36:09;;;;;;;96.80;27.73;;;;;;;;;;5587178;31;35138;-75
2023/12/02 02:39:11;;;;;;;134.20;31.37;;;;;;;;;;5586340;31;35003;-75
2023/12/02 02:42:14;;;;;;;98.53;26.75;;;;;;;;;;5587012;31;34987;-75
2023/12/02 02:45:16;;;;;;;102.97;29.25;;;;;;;;;;5586998;31;35101;-75
2023/12/02 02:48:19;;;;;;;88.03;29.02;;;;;;;;;;5586793;31;34445;-75
2023/12/02 02:51:22;;;;;;;108.90;30.27;;;;;;;;;;5586808;31;34996;-75
2023/12/02 02:54:24;;;;;;;106.43;29.98;;;;;;;;;;5586848;31;34449;-75
2023/12/02 02:57:27;;;;;;;119.62;32.33;;;;;;;;;;5586812;31;35134;-75
2023/12/02 03:00:29;;;;;;;116.97;31.73;;;;;;;;;;5586887;31;34406;-75
2023/12/02 03:03:32;;;;;;;94.43;27.87;;;;;;;;;;5586845;31;35008;-75
2023/12/02 03:06:35;;;;;;;121.87;30.40;;;;;;;;;;5586707;31;35014;-75
2023/12/02 03:09:37;;;;;;;142.50;33.22;;;;;;;;;;5586975;31;34272;-74
2023/12/02 03:12:40;;;;;;;101.32;27.73;;;;;;;;;;5588664;31;34344;-74
2023/12/02 03:15:42;;;;;;;225.93;38.05;;;;;;;;;;5589652;31;34335;-74
2023/12/02 03:18:45;;;;;;;192.37;35.03;;;;;;;;;;5588557;31;34638;-75
2023/12/02 03:21:48;;;;;;;253.27;39.10;;;;;;;;;;5589603;31;34367;-75
2023/12/02 03:24:51;;;;;;;120.20;30.25;;;;;;;;;;5589637;31;32651;-74
2023/12/02 03:27:54;;;;;;;177.27;33.65;;;;;;;;;;5589173;31;35152;-74
2023/12/02 03:30:56;;;;;;;119.18;29.87;;;;;;;;;;5589292;31;35076;-74
2023/12/02 03:33:59;;;;;;;166.27;33.22;;;;;;;;;;5588964;31;33707;-74
2023/12/02 03:37:02;;;;;;;100.28;27.92;;;;;;;;;;5589321;31;34519;-75
2023/12/02 03:40:05;;;;;;;104.00;27.95;;;;;;;;;;5589599;31;34455;-74
2023/12/02 03:43:09;;;;;;;125.25;30.67;;;;;;;;;;5588399;31;34523;-75
2023/12/02 03:46:11;;;;;;;167.52;31.70;;;;;;;;;;5588468;31;34365;-74
2023/12/02 03:49:14;;;;;;;145.30;32.05;;;;;;;;;;5589122;31;35356;-75
2023/12/02 03:52:16;;;;;;;139.60;30.83;;;;;;;;;;5588985;31;34380;-75
2023/12/02 03:55:19;;;;;;;93.65;27.60;;;;;;;;;;5589148;31;35046;-75
2023/12/02 03:58:22;;;;;;;98.45;28.25;;;;;;;;;;5589251;31;35184;-75
2023/12/02 04:01:24;;;;;;;177.60;35.28;;;;;;;;;;5588211;31;34609;-75
2023/12/02 04:04:27;;;;;;;216.18;38.10;;;;;;;;;;5588978;31;34444;-76
2023/12/02 04:07:30;;;;;;;122.53;29.92;;;;;;;;;;5588906;31;34994;-75
2023/12/02 04:10:33;;;;;;;158.07;33.78;;;;;;;;;;5588035;31;35055;-75
2023/12/02 04:13:35;;;;;;;105.55;28.50;;;;;;;;;;5588025;31;35122;-75
2023/12/02 04:16:40;;;;;;;116.03;30.40;;;;;;;;;;5588783;31;34442;-75
2023/12/02 04:19:43;;;;;;;144.18;33.10;;;;;;;;;;5588646;31;34546;-74
2023/12/02 04:22:45;;;;;;;99.22;29.10;;;;;;;;;;5588123;31;34298;-75
2023/12/02 04:25:48;;;;;;;163.02;33.28;;;;;;;;;;5588815;31;34298;-76
2023/12/02 04:28:51;;;;;;;138.85;32.28;;;;;;;;;;5588668;31;34965;-75
2023/12/02 04:31:53;;;;;;;174.27;34.00;;;;;;;;;;5589049;31;34363;-76
2023/12/02 04:34:56;;;;;;;108.10;29.75;;;;;;;;;;5588707;31;34273;-75
2023/12/02 04:37:58;;;;;;;101.03;28.02;;;;;;;;;;5588932;31;34487;-75
2023/12/02 04:41:01;;;;;;;106.20;30.37;;;;;;;;;;5588967;31;35000;-75
2023/12/02 04:44:05;;;;;;;134.75;31.20;;;;;;;;;;5588594;31;34449;-75
2023/12/02 04:47:08;;;;;;;301.98;40.53;;;;;;;;;;5587883;31;34373;-75
2023/12/02 04:50:10;;;;;;;140.10;32.58;;;;;;;;;;5587541;31;35228;-74
2023/12/02 04:53:13;;;;;;;171.77;33.78;;;;;;;;;;5588412;31;34209;-75
2023/12/02 04:56:16;;;;;;;120.37;31.33;;;;;;;;;;5587680;31;34953;-75
2023/12/02 04:59:18;;;;;;;131.35;33.00;;;;;;;;;;5588338;31;34477;-75
2023/12/02 05:02:21;;;;;;;119.70;31.15;;;;;;;;;;5588383;31;34383;-76
2023/12/02 05:05:24;;;;;;;117.28;30.45;;;;;;;;;;5588418;31;34355;-75
2023/12/02 05:08:27;;;;;;;120.35;31.02;;;;;;;;;;5588066;31;34397;-76
2023/12/02 05:11:29;;;;;;;137.05;32.00;;;;;;;;;;5588063;31;34478;-75
2023/12/02 05:14:32;;;;;;;115.75;30.75;;;;;;;;;;5588010;31;34176;-75
2023/12/02 05:17:35;;;;;;;166.57;33.70;;;;;;;;;;5588154;31;35067;-75
2023/12/02 05:20:38;;;;;;;122.97;31.17;;;;;;;;;;5588078;31;34644;-75
2023/12/02 05:23:41;;;;;;;138.45;31.98;;;;;;;;;;5588101;31;34264;-75
2023/12/02 05:26:43;;;;;;;131.00;30.58;;;;;;;;;;5588060;31;33889;-75
2023/12/02 05:29:46;;;;;;;123.43;29.42;;;;;;;;;;5587375;31;34473;-74
2023/12/02 05:32:50;;;;;;;134.87;31.87;;;;;;;;;;5586965;31;34471;-75
2023/12/02 05:35:53;;;;;;;109.50;29.73;;;;;;;;;;5587892;31;34229;-75
2023/12/02 05:38:56;;;;;;;132.95;31.52;;;;;;;;;;5587927;31;34365;-75
2023/12/02 05:41:59;;;;;;;138.90;30.67;;;;;;;;;;5587757;31;34280;-75
2023/12/02 05:45:02;;;;;;;137.93;30.15;;;;;;;;;;5587923;31;34501;-75
2023/12/02 05:48:05;;;;;;;119.28;30.37;;;;;;;;;;5587792;31;34557;-75
2023/12/02 05:51:08;;;;;;;132.90;30.77;;;;;;;;;;5587952;31;35352;-75
2023/12/02 05:54:11;;;;;;;121.35;29.67;;;;;;;;;;5588051;31;34418;-76
2023/12/02 05:57:13;;;;;;;139.70;30.58;;;;;;;;;;5587661;31;34432;-75
2023/12/02 06:00:17;;;;;;;117.28;29.50;;;;;;;;;;5587574;31;35153;-76
2023/12/02 06:03:20;;;;;;;290.02;38.35;;;;;;;;;;5587706;31;34193;-75
2023/12/02 06:06:22;;;;;;;127.43;28.60;;;;;;;;;;5587630;31;34448;-77
2023/12/02 06:09:25;;;;;;;160.02;31.70;;;;;;;;;;5586779;31;34940;-75
2023/12/02 06:12:28;;;;;;;117.25;29.05;;;;;;;;;;5587293;31;34048;-76
2023/12/02 06:15:31;;;;;;;124.50;31.10;;;;;;;;;;5587512;31;34363;-76
2023/12/02 06:18:33;;;;;;;159.98;32.33;;;;;;;;;;5587293;31;34621;-76
2023/12/02 06:21:37;;;;;;;179.73;31.77;;;;;;;;;;5586616;31;34809;-77
2023/12/02 06:24:39;;;;;;;126.25;30.40;;;;;;;;;;5587360;31;35116;-75
2023/12/02 06:27:42;;;;;;;175.25;32.50;;;;;;;;;;5587279;31;34343;-76
2023/12/02 06:30:45;;;;;;;134.75;32.35;;;;;;;;;;5587128;31;34062;-76
2023/12/02 06:33:50;;;;;;;118.60;29.12;;;;;;;;;;5586929;31;35007;-76
2023/12/02 06:36:52;;;;;;;127.05;29.87;;;;;;;;;;5586781;31;34428;-76
2023/12/02 06:39:55;;;;;;;125.82;30.02;;;;;;;;;;5587026;31;34546;-76
2023/12/02 06:42:57;;;;;;;129.65;30.48;;;;;;;;;;5586942;31;35038;-77
2023/12/02 06:46:00;;;;;;;132.48;30.20;;;;;;;;;;5588858;31;34459;-76
2023/12/02 06:49:02;;;;;;;134.87;31.20;;;;;;;;;;5589413;31;34645;-78
2023/12/02 06:52:05;;;;;;;142.93;31.45;;;;;;;;;;5589819;31;34457;-74
2023/12/02 06:55:08;;;;;;;152.65;32.58;;;;;;;;;;5589280;31;34428;-77
2023/12/02 06:58:14;;;;;;;156.80;32.72;;;;;;;;;;5589455;31;35292;-77
2023/12/02 07:01:24;;;;;;;116.60;30.30;;;;;;;;;;5589745;31;35076;-76
2023/12/02 07:04:27;;;;;;;234.27;37.88;;;;;;;;;;5589640;31;34527;-76
2023/12/02 07:07:30;;;;;;;136.85;32.08;;;;;;;;;;5589846;31;35117;-77
2023/12/02 07:10:32;;;;;;;129.25;31.10;;;;;;;;;;5589418;31;33704;-76
2023/12/02 07:13:35;;;;;;;133.30;31.30;;;;;;;;;;5589126;31;34511;-76
2023/12/02 07:16:37;;;;;;;144.77;33.03;;;;;;;;;;5589294;31;35253;-77
2023/12/02 07:19:40;;;;;;;122.30;31.23;;;;;;;;;;5589579;31;34755;-76
2023/12/02 07:22:42;;;;;;;140.88;31.33;;;;;;;;;;5589438;31;34620;-76
2023/12/02 07:25:45;;;;;;;151.40;32.58;;;;;;;;;;5589313;31;34326;-75
2023/12/02 07:28:48;;;;;;;129.65;31.65;;;;;;;;;;5588634;31;34928;-76
2023/12/02 07:31:50;;;;;;;117.20;31.80;;;;;;;;;;5589249;31;35163;-77
2023/12/02 07:34:53;;;;;;;129.65;32.25;;;;;;;;;;5589559;31;34259;-77
2023/12/02 07:37:56;;;;;;;116.50;31.50;;;;;;;;;;5589236;31;35167;-76
2023/12/02 07:40:58;;;;;;;132.40;34.50;;;;;;;;;;5589063;31;34366;-77
2023/12/02 07:44:01;;;;;;;140.23;33.58;;;;;;;;;;5589071;31;35062;-77
2023/12/02 07:47:04;;;;;;;120.78;30.85;;;;;;;;;;5589111;31;34360;-77
2023/12/02 07:50:07;;;;;;;138.68;32.63;;;;;;;;;;5588987;31;34245;-76
2023/12/02 07:53:10;;;;;;;147.35;33.83;;;;;;;;;;5588257;31;34737;-76
2023/12/02 07:56:13;;;;;;;136.02;32.72;;;;;;;;;;5588961;31;34682;-76
2023/12/02 07:59:15;;;;;;;137.02;33.15;;;;;;;;;;5589036;31;34502;-77
2023/12/02 08:02:18;;;;;;;168.40;35.35;;;;;;;;;;5589357;31;34175;-77
2023/12/02 08:05:21;;;;;;;130.95;33.30;;;;;;;;;;5588962;31;35146;-77
2023/12/02 08:08:26;;;;;;;114.80;30.50;;;;;;;;;;5588713;31;34396;-76
2023/12/02 08:11:29;;;;;;;146.93;33.20;;;;;;;;;;5588448;31;34635;-77
2023/12/02 08:14:31;;;;;;;120.80;31.67;;;;;;;;;;5588817;31;34528;-77
2023/12/02 08:17:34;;;;;;;104.57;30.10;;;;;;;;;;5588738;31;34410;-77
2023/12/02 08:20:36;;;;;;;130.93;32.75;;;;;;;;;;5589057;31;34251;-76
2023/12/02 08:23:39;;;;;;;137.90;32.15;;;;;;;;;;5588577;31;35236;-75
2023/12/02 08:26:42;;;;;;;113.60;31.15;;;;;;;;;;5588242;31;35030;-75
2023/12/02 08:29:44;;;;;;;107.28;30.37;;;;;;;;;;5587770;31;34545;-77
2023/12/02 08:32:47;;;;;;;110.65;29.90;;;;;;;;;;5588063;31;34439;-76
2023/12/02 08:35:50;;;;;;;125.80;29.58;;;;;;;;;;5588879;31;35045;-77
2023/12/02 08:38:52;;;;;;;131.87;31.87;;;;;;;;;;5588619;31;35061;-75
2023/12/02 08:41:55;;;;;;;112.55;29.77;;;;;;;;;;5588573;31;34527;-76
2023/12/02 08:44:57;;;;;;;109.10;30.73;;;;;;;;;;5588578;31;34164;-77
2023/12/02 08:48:00;;;;;;;105.30;30.10;;;;;;;;;;5587872;31;34169;-76
2023/12/02 08:51:03;;;;;;;102.05;29.17;;;;;;;;;;5588426;31;34425;-77
2023/12/02 08:54:06;;;;;;;96.43;28.30;;;;;;;;;;5588527;31;34161;-76
2023/12/02 08:57:08;;;;;;;120.25;29.65;;;;;;;;;;5588720;31;34229;-76
2023/12/02 09:00:11;;;;;;;152.15;31.90;;;;;;;;;;5588135;31;34427;-76
2023/12/02 09:03:14;;;;;;;90.22;27.23;;;;;;;;;;5588487;31;35005;-76
2023/12/02 09:06:17;;;;;;;90.53;28.52;;;;;;;;;;5588118;31;34308;-77
2023/12/02 09:09:20;;;;;;;90.93;27.80;;;;;;;;;;5587703;31;35081;-77
2023/12/02 09:12:22;;;;;;;100.90;29.85;;;;;;;;;;5588568;31;34284;-77
2023/12/02 09:15:28;;;;;;;178.43;34.95;;;;;;;;;;5588255;31;34499;-77
2023/12/02 09:18:35;;;;;;;130.15;31.73;;;;;;;;;;5588906;31;34195;-77
2023/12/02 09:21:44;;;;;;;164.68;33.83;;;;;;;;;;5588407;31;35016;-76
2023/12/02 09:24:47;;;;;;;103.90;30.15;;;;;;;;;;5588023;31;34845;-77
2023/12/02 09:28:10;;;;;;;115.68;31.08;;;;;;;;;;5588147;31;35051;-77
2023/12/02 09:31:13;;;;;;;96.00;29.73;;;;;;;;;;5588313;31;34226;-76
2023/12/02 09:34:51;;;;;;;102.35;30.33;;;;;;;;;;5588153;31;34499;-77
2023/12/02 09:37:55;;;;;;;110.47;30.20;;;;;;;;;;5508360;32;35071;-77
2023/12/02 09:41:17;;;;;;;79.03;28.05;;;;;;;;;;5508438;32;34611;-76
2023/12/02 09:44:28;;;;;;;77.85;29.02;;;;;;;;;;5508388;32;35016;-76
2023/12/02 09:47:31;;;;;;;;;;;;;;;;;;5508834;32;34961;-76
2023/12/02 09:50:37;;;;;;;63.45;26.02;;;;;;;;;;5508471;32;34541;-77
2023/12/02 09:54:05;;;;;;;79.18;28.33;;;;;;;;;;5508348;32;34350;-76
2023/12/02 09:57:14;;;;;;;66.85;25.92;;;;;;;;;;5491374;32;35188;-76
2023/12/02 10:00:26;;;;;;;81.60;25.95;;;;;;;;;;5508255;32;35013;-77
2023/12/02 10:03:47;;;;;;;60.45;23.60;;;;;;;;;;5508230;32;34120;-77
2023/12/02 10:06:53;;;;;;;84.57;26.25;;;;;;;;;;5488798;32;34178;-76
2023/12/02 10:10:00;;;;;;;65.62;25.17;;;;;;;;;;5476391;32;35004;-76
2023/12/02 10:13:23;;;;;;;77.07;26.65;;;;;;;;;;5583058;31;34305;-77
2023/12/02 10:16:29;;;;;;;80.68;27.48;;;;;;;;;;5587446;31;34369;-76
2023/12/02 10:19:50;;;;;;;72.50;26.65;;;;;;;;;;5586901;31;35254;-76
2023/12/02 10:23:04;;;;;;;90.18;27.67;;;;;;;;;;5589878;31;34496;-76
2023/12/02 10:26:09;;;;;;;79.05;27.58;;;;;;;;;;5589913;31;34398;-76
2023/12/02 10:29:15;;;;;;;78.82;27.77;;;;;;;;;;5589889;31;35375;-77
2023/12/02 10:32:30;;;;;;;91.30;28.45;;;;;;;;;;5589611;31;35086;-77
2023/12/02 10:35:41;;;;;;;66.18;26.58;;;;;;;;;;5589335;31;35139;-76
2023/12/02 10:38:47;;;;;;;80.60;28.20;;;;;;;;;;5590029;31;34549;-77
2023/12/02 10:41:57;;;;;;;75.00;28.12;;;;;;;;;;5588848;31;34336;-77
2023/12/02 10:45:04;;;;;;;83.82;28.73;;;;;;;;;;5590048;31;34334;-76
2023/12/02 10:48:07;;;;;;;86.57;29.95;;;;;;;;;;5589951;31;35141;-77
2023/12/02 10:51:13;;;;;;;80.38;29.65;;;;;;;;;;5589890;31;34440;-76
2023/12/02 10:54:18;;;;;;;88.32;29.52;;;;;;;;;;5589733;31;34465;-77
2023/12/02 10:57:21;;;;;;;87.93;31.27;;;;;;;;;;5589631;31;34402;-76
2023/12/02 11:00:26;;;;;;;86.57;29.30;;;;;;;;;;5589870;31;35355;-77
2023/12/02 11:03:37;;;;;;;97.07;30.75;;;;;;;;;;5589553;31;34348;-76
2023/12/02 11:06:39;;;;;;;;;;;;;;;;;;5589693;31;34406;-77
2023/12/02 11:09:48;;;;;;;88.82;29.33;;;;;;;;;;5588787;31;35401;-76
2023/12/02 11:12:54;;;;;;;81.20;29.87;;;;;;;;;;5589136;31;34530;-78
2023/12/02 11:15:56;;;;;;;78.50;29.10;;;;;;;;;;5588616;31;34451;-76
2023/12/02 11:18:59;;;;;;;81.40;29.70;;;;;;;;;;5588441;31;35145;-77
2023/12/02 11:22:25;;;;;;;98.57;31.60;;;;;;;;;;5588267;31;35100;-76
2023/12/02 11:25:40;;;;;;;118.50;33.22;;;;;;;;;;5578086;31;34225;-76
2023/12/02 11:28:54;;;;;;;90.53;30.70;;;;;;;;;;5588159;31;34517;-76
2023/12/02 11:32:16;;;;;;;146.25;35.63;;;;;;;;;;5587500;31;35322;-77
2023/12/02 11:35:24;;;;;;;107.18;33.50;;;;;;;;;;5587101;31;34454;-77
2023/12/02 11:38:29;;;;;;;88.95;29.15;;;;;;;;;;5588021;31;34997;-77
2023/12/02 11:41:48;;;;;;;92.55;29.02;;;;;;;;;;5588030;31;35020;-78
2023/12/02 11:44:58;;;;;;;98.85;30.98;;;;;;;;;;5587730;31;34277;-76
2023/12/02 11:48:10;;;;;;;82.78;29.00;;;;;;;;;;5586960;31;34250;-78
2023/12/02 11:51:16;;;;;;;75.97;27.62;;;;;;;;;;5587612;31;34249;-76
2023/12/02 11:54:34;;;;;;;82.60;29.02;;;;;;;;;;5587961;31;35117;-77
2023/12/02 11:57:36;;;;;;;72.93;27.25;;;;;;;;;;5587905;31;34794;-77
2023/12/02 12:00:39;;;;;;;99.10;30.08;;;;;;;;;;5588010;31;35014;-78
2023/12/02 12:03:41;;;;;;;75.47;26.92;;;;;;;;;;5587543;31;35304;-77
2023/12/02 12:06:50;;;;;;;120.95;29.98;;;;;;;;;;5587469;31;35019;-77
2023/12/02 12:09:59;;;;;;;107.35;31.62;;;;;;;;;;5587725;31;34470;-77
2023/12/02 12:13:02;;;;;;;155.35;33.53;;;;;;;;;;5587070;31;35150;-77
2023/12/02 12:16:05;;;;;;;189.40;36.25;;;;;;;;;;5585131;31;115012;-77
2023/12/02 12:19:08;;;;;;;216.23;38.88;;;;;;;;;;5588491;31;34615;-77
2023/12/02 12:22:10;;;;;;;119.70;31.70;;;;;;;;;;5588746;31;35115;-76
2023/12/02 12:25:13;;;;;;;127.25;34.15;;;;;;;;;;5588757;31;34458;-78
2023/12/02 12:28:15;;;;;;;148.80;34.42;;;;;;;;;;5588543;31;35074;-76
2023/12/02 12:31:19;;;;;;;105.72;30.73;;;;;;;;;;5588525;31;34058;-77
2023/12/02 12:34:21;;;;;;;92.20;30.17;;;;;;;;;;5588421;31;34765;-77
2023/12/02 12:37:24;;;;;;;114.60;32.00;;;;;;;;;;5588805;31;35001;-77
2023/12/02 12:40:27;;;;;;;110.00;31.58;;;;;;;;;;5587912;31;34139;-77
2023/12/02 12:43:29;;;;;;;116.20;30.70;;;;;;;;;;5587928;31;34403;-77
2023/12/02 12:46:33;;;;;;;90.20;29.00;;;;;;;;;;5588830;31;33994;-77
2023/12/02 12:49:40;;;;;;;103.68;29.35;;;;;;;;;;5588580;31;33013;-77
2023/12/02 12:52:48;;;;;;;90.38;29.12;;;;;;;;;;5588720;31;34303;-77
2023/12/02 12:55:55;;;;;;;81.60;28.73;;;;;;;;;;5588555;31;34506;-78
2023/12/02 12:59:01;;;;;;;91.75;30.17;;;;;;;;;;5588119;31;35041;-78
2023/12/02 13:02:15;;;;;;;105.53;31.27;;;;;;;;;;5588911;31;34403;-77
2023/12/02 13:05:19;;;;;;;111.62;33.15;;;;;;;;;;5588513;31;34604;-77
2023/12/02 13:08:22;;;;;;;112.80;34.13;;;;;;;;;;5588354;31;35165;-77
2023/12/02 13:11:28;;;;;;;143.02;36.13;;;;;;;;;;5588268;31;34589;-79
2023/12/02 13:14:35;;;;;;;109.45;33.28;;;;;;;;;;5588541;31;34273;-77
2023/12/02 13:17:38;;;;;;;67.75;25.73;;;;;;;;;;5587989;31;35046;-77
2023/12/02 13:20:42;;;;;;;34.50;16.73;;;;;;;;;;5588243;31;34201;-78
2023/12/02 13:23:46;;;;;;;31.75;15.70;;;;;;;;;;5588266;31;35079;-77
2023/12/02 13:26:48;;;;;;;29.08;14.77;;;;;;;;;;5588211;31;35117;-78
2023/12/02 13:29:51;;;;;;;26.48;14.55;;;;;;;;;;5588160;31;34151;-77
2023/12/02 13:32:55;;;;;;;25.48;14.05;;;;;;;;;;5588347;31;34428;-77
2023/12/02 13:36:05;;;;;;;21.30;12.90;;;;;;;;;;5587656;31;34766;-77
2023/12/02 13:39:24;;;;;;;22.35;12.48;;;;;;;;;;5587864;31;34704;-77
2023/12/02 13:42:33;;;;;;;22.17;11.93;;;;;;;;;;5587765;31;34461;-77
2023/12/02 13:45:38;;;;;;;19.25;11.20;;;;;;;;;;5587863;31;34692;-76
2023/12/02 13:49:04;;;;;;;21.65;12.60;;;;;;;;;;5588089;31;34485;-76
2023/12/02 13:52:25;;;;;;;21.27;11.12;;;;;;;;;;5551602;31;34442;-78
2023/12/02 13:55:52;;;;;;;19.92;10.73;;;;;;;;;;5587254;31;34422;-78
2023/12/02 13:59:14;;;;;;;21.62;11.68;;;;;;;;;;5587755;31;34502;-77
2023/12/02 14:02:26;;;;;;;21.90;11.25;;;;;;;;;;5587322;31;34327;-76
2023/12/02 14:05:39;;;;;;;18.52;10.80;;;;;;;;;;5587085;31;35094;-77
2023/12/02 14:08:45;;;;;;;17.15;10.18;;;;;;;;;;5587488;31;34866;-77
2023/12/02 14:12:06;;;;;;;18.90;10.80;;;;;;;;;;5587609;31;34309;-78
2023/12/02 14:15:14;;;;;;;15.85;9.52;;;;;;;;;;5587380;31;35076;-79
2023/12/02 14:18:35;;;;;;;16.15;9.68;;;;;;;;;;5587442;31;35060;-78
2023/12/02 14:21:37;;;;;;;16.58;9.50;;;;;;;;;;5587838;31;35046;-78
2023/12/02 14:25:13;;;;;;;14.98;9.32;;;;;;;;;;5587380;31;34313;-77
2023/12/02 14:28:31;;;;;;;14.38;9.25;;;;;;;;;;5553268;31;34667;-77
2023/12/02 14:31:53;;;;;;;16.60;8.98;;;;;;;;;;5587087;31;34391;-77
2023/12/02 14:35:18;;;;;;;14.63;8.45;;;;;;;;;;5586974;31;35133;-76
2023/12/02 14:38:30;;;;;;;12.50;8.32;;;;;;;;;;5587343;31;35060;-77
2023/12/02 14:41:54;;;;;;;13.32;7.70;;;;;;;;;;5586939;31;34673;-76
2023/12/02 14:44:57;;;;;;;16.83;9.00;;;;;;;;;;5586401;31;34233;-77
2023/12/02 14:48:03;;;;;;;12.77;8.60;;;;;;;;;;5587340;31;34477;-77
2023/12/02 14:51:06;;;;;;;12.77;8.10;;;;;;;;;;5587300;31;34088;-78
2023/12/02 14:54:10;;;;;;;12.20;8.95;;;;;;;;;;5586782;31;34456;-77
2023/12/02 14:57:15;;;;;;;12.82;8.98;;;;;;;;;;5586751;31;34259;-77
2023/12/02 15:00:19;;;;;;;15.25;9.40;;;;;;;;;;5587028;31;35137;-78
2023/12/02 15:03:26;;;;;;;16.20;9.77;;;;;;;;;;5586661;31;34391;-78
2023/12/02 15:06:29;;;;;;;14.50;9.82;;;;;;;;;;5587884;31;35142;-78
2023/12/02 15:09:32;;;;;;;16.48;10.10;;;;;;;;;;5589667;31;34887;-78
2023/12/02 15:12:36;;;;;;;13.80;10.02;;;;;;;;;;5589519;31;34692;-78
2023/12/02 15:15:43;;;;;;;13.68;9.68;;;;;;;;;;5589654;31;34457;-78
2023/12/02 15:18:46;;;;;;;15.88;10.60;;;;;;;;;;5589332;31;34310;-77
2023/12/02 15:22:08;;;;;;;12.77;9.50;;;;;;;;;;5588585;31;34383;-78
2023/12/02 15:25:10;;;;;;;13.52;9.77;;;;;;;;;;5589579;31;34442;-78
2023/12/02 15:28:17;;;;;;;14.02;10.80;;;;;;;;;;5589395;31;34398;-78
2023/12/02 15:31:20;;;;;;;14.95;11.23;;;;;;;;;;5589321;31;34369;-78
2023/12/02 15:34:23;;;;;;;16.40;11.98;;;;;;;;;;5589307;31;34937;-77
2023/12/02 15:37:26;;;;;;;14.82;11.88;;;;;;;;;;5588714;31;34534;-78
2023/12/02 15:40:30;;;;;;;16.20;12.45;;;;;;;;;;5588776;31;34390;-77
2023/12/02 15:43:32;;;;;;;16.52;12.35;;;;;;;;;;5589101;31;34445;-78
2023/12/02 15:46:39;;;;;;;16.70;13.55;;;;;;;;;;5588749;31;34423;-78
2023/12/02 15:49:41;;;;;;;16.65;13.05;;;;;;;;;;5588547;31;34224;-78
2023/12/02 15:52:44;;;;;;;15.82;12.55;;;;;;;;;;5589072;31;34131;-78
2023/12/02 15:55:47;;;;;;;14.23;11.85;;;;;;;;;;5588884;31;34407;-78
2023/12/02 15:58:53;;;;;;;15.15;12.55;;;;;;;;;;5589058;31;34965;-77
2023/12/02 16:01:56;;;;;;;17.52;13.90;;;;;;;;;;5588967;31;34395;-78
2023/12/02 16:04:59;;;;;;;19.10;16.00;;;;;;;;;;5588950;31;35032;-77
2023/12/02 16:08:02;;;;;;;19.62;16.42;;;;;;;;;;5589287;31;34232;-77
2023/12/02 16:11:06;;;;;;;23.35;19.05;;;;;;;;;;5589199;31;34210;-77
2023/12/02 16:14:08;;;;;;;24.10;20.67;;;;;;;;;;5588366;31;35178;-75
2023/12/02 16:17:12;;;;;;;29.80;23.33;;;;;;;;;;5587815;31;34832;-78
2023/12/02 16:20:14;;;;;;;29.90;25.15;;;;;;;;;;5588809;31;34474;-77
2023/12/02 16:23:17;;;;;;;28.30;24.12;;;;;;;;;;5588788;31;34348;-76
2023/12/02 16:26:20;;;;;;;32.85;26.77;;;;;;;;;;5588888;31;34454;-78
2023/12/02 16:29:23;;;;;;;30.52;25.17;;;;;;;;;;5588462;31;35256;-78
2023/12/02 16:32:25;;;;;;;29.80;25.65;;;;;;;;;;5588593;31;35032;-77
2023/12/02 16:35:28;;;;;;;30.37;24.77;;;;;;;;;;5588202;31;34563;-77
2023/12/02 16:38:31;;;;;;;28.95;25.00;;;;;;;;;;5588437;31;35019;-77
2023/12/02 16:41:34;;;;;;;28.98;23.80;;;;;;;;;;5588730;31;34394;-77
2023/12/02 16:44:37;;;;;;;29.40;24.48;;;;;;;;;;5587663;31;34784;-77
2023/12/02 16:47:48;;;;;;;28.12;23.33;;;;;;;;;;5588338;31;34436;-76
2023/12/02 16:50:52;;;;;;;24.55;20.98;;;;;;;;;;5588723;31;35046;-78
2023/12/02 16:53:57;;;;;;;24.25;20.65;;;;;;;;;;5588522;31;35042;-76
2023/12/02 16:57:00;;;;;;;23.17;18.00;;;;;;;;;;5588497;31;34352;-76
2023/12/02 17:00:03;;;;;;;22.00;17.05;;;;;;;;;;5588360;31;35291;-76
2023/12/02 17:03:06;;;;;;;18.92;16.60;;;;;;;;;;5588081;31;34246;-74
2023/12/02 17:06:12;;;;;;;19.12;16.00;;;;;;;;;;5588302;31;34515;-77
2023/12/02 17:09:22;;;;;;;21.62;16.65;;;;;;;;;;5588514;31;34474;-76
2023/12/02 17:12:25;;;;;;;;;;;;;;;;;;5588674;31;34447;-77
2023/12/02 17:15:28;;;;;;;18.92;15.80;;;;;;;;;;5588332;31;33412;-77
2023/12/02 17:18:34;;;;;;;17.80;14.30;;;;;;;;;;5588431;31;34984;-77
2023/12/02 17:21:36;;;;;;;16.92;14.43;;;;;;;;;;5588436;31;34282;-76
2023/12/02 17:24:43;;;;;;;17.62;14.43;;;;;;;;;;5588193;31;35114;-75
2023/12/02 17:27:46;;;;;;;17.12;13.98;;;;;;;;;;5587840;31;34440;-76
2023/12/02 17:30:48;;;;;;;17.42;13.55;;;;;;;;;;5587760;31;34337;-76
2023/12/02 17:33:50;;;;;;;18.60;13.93;;;;;;;;;;5587963;31;34519;-75
2023/12/02 17:36:54;;;;;;;19.17;14.32;;;;;;;;;;5587902;31;34427;-75
2023/12/02 17:39:56;;;;;;;21.45;14.35;;;;;;;;;;5587989;31;35039;-76
2023/12/02 17:42:59;;;;;;;19.40;15.05;;;;;;;;;;5588005;31;34253;-77
2023/12/02 17:46:01;;;;;;;21.27;15.30;;;;;;;;;;5587816;31;34551;-76
2023/12/02 17:49:05;;;;;;;19.33;14.38;;;;;;;;;;5588022;31;34392;-76